Time;durP1;ratioP1;P1;durP2;ratioP2;P2;SDS_P1;SDS_P2;PMS_P1;PMS_P2;Temp;Humidity;BMP_temperature;BMP_pressure;BME280_temperature;BME280_humidity;BME280_pressure;Samples;Min_cycle;Max_cycle;Signal;HPM_P1;HPM_P2
2021/11/20 00:00:47;;;;;;;14.90;5.53;;;;;;;;;;4887432;29;20048;-91
2021/11/20 00:03:16;;;;;;;11.93;5.00;;;;;;;;;;4881528;29;20052;-91
2021/11/20 00:05:46;;;;;;;14.23;4.70;;;;;;;;;;4857050;29;20036;-92
2021/11/20 00:08:16;;;;;;;12.15;4.97;;;;;;;;;;4868059;29;20548;-91
2021/11/20 00:10:43;;;;;;;9.38;4.32;;;;;;;;;;4862656;29;20075;-90
2021/11/20 00:13:13;;;;;;;11.70;5.57;;;;;;;;;;4883977;29;20037;-92
2021/11/20 00:16:00;;;;;;;13.35;5.05;;;;;;;;;;4871843;29;20124;-92
2021/11/20 00:18:30;;;;;;;11.00;4.90;;;;;;;;;;4870377;29;20044;-91
2021/11/20 00:20:59;;;;;;;9.80;4.38;;;;;;;;;;4877010;29;20642;-93
2021/11/20 00:23:31;;;;;;;14.00;5.15;;;;;;;;;;4870703;29;20084;-92
2021/11/20 00:26:01;;;;;;;14.27;5.07;;;;;;;;;;4887585;29;20036;-92
2021/11/20 00:31:34;;;;;;;13.93;5.22;;;;;;;;;;4882551;29;20040;-91
2021/11/20 00:34:01;;;;;;;10.45;4.63;;;;;;;;;;4889009;29;20033;-89
2021/11/20 00:36:30;;;;;;;12.10;4.85;;;;;;;;;;4897468;29;20044;-91
2021/11/20 00:38:59;;;;;;;13.32;5.30;;;;;;;;;;4860107;29;20057;-92
2021/11/20 00:41:29;;;;;;;11.68;5.60;;;;;;;;;;4829319;29;20325;-91
2021/11/20 00:43:58;;;;;;;14.60;5.80;;;;;;;;;;4851513;29;20037;-91
2021/11/20 00:46:30;;;;;;;13.63;5.60;;;;;;;;;;4832038;29;20041;-91
2021/11/20 00:49:01;;;;;;;14.45;5.40;;;;;;;;;;4848447;29;20521;-91
2021/11/20 00:51:30;;;;;;;15.55;6.13;;;;;;;;;;4833854;29;20041;-91
2021/11/20 00:53:59;;;;;;;14.02;6.45;;;;;;;;;;4849419;29;20034;-91
2021/11/20 00:56:27;;;;;;;13.45;4.85;;;;;;;;;;4835809;29;20779;-93
2021/11/20 00:58:58;;;;;;;12.85;6.13;;;;;;;;;;4816805;29;20044;-90
2021/11/20 01:01:31;;;;;;;13.80;5.22;;;;;;;;;;4835939;29;20056;-92
2021/11/20 01:03:59;;;;;;;13.00;4.97;;;;;;;;;;4826622;29;20988;-91
2021/11/20 01:06:27;;;;;;;13.07;5.60;;;;;;;;;;4840112;29;20030;-90
2021/11/20 01:08:55;;;;;;;11.52;4.72;;;;;;;;;;4838914;29;20053;-91
2021/11/20 01:11:24;;;;;;;12.27;5.60;;;;;;;;;;4906489;29;20093;-92
2021/11/20 01:13:54;;;;;;;11.23;4.93;;;;;;;;;;4880512;29;20032;-90
2021/11/20 01:16:22;;;;;;;13.25;5.00;;;;;;;;;;4892877;29;20051;-91
2021/11/20 01:18:51;;;;;;;10.88;4.43;;;;;;;;;;4899114;29;20032;-91
2021/11/20 01:21:20;;;;;;;11.93;4.55;;;;;;;;;;4914743;29;20107;-92
2021/11/20 01:23:49;;;;;;;10.77;4.50;;;;;;;;;;4953267;28;20095;-92
2021/11/20 01:26:22;;;;;;;11.32;4.47;;;;;;;;;;4955435;28;20035;-91
2021/11/20 01:28:54;;;;;;;9.52;4.53;;;;;;;;;;4944631;29;20051;-91
2021/11/20 01:31:26;;;;;;;12.30;4.97;;;;;;;;;;4946841;28;20031;-92
2021/11/20 01:33:53;;;;;;;13.82;4.72;;;;;;;;;;4928551;29;20087;-90
2021/11/20 01:36:20;;;;;;;;;;;;;;;;;;4962863;28;20031;-90
2021/11/20 01:38:48;;;;;;;13.55;5.07;;;;;;;;;;4949677;28;19913;-91
2021/11/20 01:41:15;;;;;;;12.18;5.40;;;;;;;;;;4948955;28;20075;-90
2021/11/20 01:43:48;;;;;;;14.50;5.32;;;;;;;;;;4937129;28;20390;-89
2021/11/20 01:46:20;;;;;;;16.20;6.40;;;;;;;;;;4935461;28;20045;-90
2021/11/20 01:49:12;;;;;;;13.68;5.05;;;;;;;;;;4931135;28;20034;-89
2021/11/20 01:51:45;;;;;;;13.48;5.10;;;;;;;;;;4961699;28;20031;-90
2021/11/20 01:54:16;;;;;;;12.30;5.18;;;;;;;;;;4930116;28;20126;-92
2021/11/20 01:56:50;;;;;;;12.65;5.03;;;;;;;;;;4931454;28;20146;-91
2021/11/20 01:59:36;;;;;;;12.15;5.65;;;;;;;;;;4928342;28;20043;-90
2021/11/20 02:02:22;;;;;;;12.18;4.68;;;;;;;;;;4942510;28;20055;-91
2021/11/20 02:05:17;;;;;;;13.98;4.95;;;;;;;;;;4923369;28;20042;-90
2021/11/20 02:08:07;;;;;;;13.75;5.03;;;;;;;;;;4926885;28;20051;-91
2021/11/20 02:10:41;;;;;;;11.60;4.38;;;;;;;;;;4926881;29;20043;-92
2021/11/20 02:13:11;;;;;;;11.88;4.63;;;;;;;;;;4932048;28;20075;-91
2021/11/20 02:15:56;;;;;;;14.77;4.70;;;;;;;;;;4930573;29;20035;-92
2021/11/20 02:18:26;;;;;;;13.77;4.90;;;;;;;;;;4928022;28;20070;-91
2021/11/20 02:21:01;;;;;;;13.02;5.32;;;;;;;;;;4929358;28;20074;-91
2021/11/20 02:23:28;;;;;;;10.32;4.55;;;;;;;;;;4929310;28;20109;-90
2021/11/20 02:26:00;;;;;;;10.02;4.65;;;;;;;;;;4929866;29;20034;-91
2021/11/20 02:28:28;;;;;;;12.55;4.68;;;;;;;;;;4935033;29;20035;-90
2021/11/20 02:30:58;;;;;;;11.07;4.78;;;;;;;;;;4919156;28;20109;-90
2021/11/20 02:33:28;;;;;;;13.88;4.68;;;;;;;;;;4934045;28;20557;-91
2021/11/20 02:36:07;;;;;;;14.70;5.15;;;;;;;;;;4922095;28;20034;-92
2021/11/20 02:38:42;;;;;;;10.77;4.38;;;;;;;;;;4926440;29;20031;-91
2021/11/20 02:41:13;;;;;;;10.68;4.88;;;;;;;;;;4913693;29;20040;-92
2021/11/20 02:43:41;;;;;;;11.90;4.60;;;;;;;;;;4922224;29;20047;-90
2021/11/20 02:46:10;;;;;;;11.95;4.70;;;;;;;;;;4912603;29;20035;-91
2021/11/20 02:48:41;;;;;;;9.20;4.47;;;;;;;;;;4923108;29;20119;-91
2021/11/20 02:51:17;;;;;;;10.10;4.25;;;;;;;;;;4914563;29;20074;-91
2021/11/20 02:53:52;;;;;;;11.63;4.78;;;;;;;;;;4885262;29;20074;-91
2021/11/20 02:56:25;;;;;;;11.05;3.60;;;;;;;;;;4903055;29;20040;-91
2021/11/20 02:58:51;;;;;;;12.02;4.18;;;;;;;;;;4910557;29;20027;-92
2021/11/20 03:01:18;;;;;;;;;;;;;;;;;;4913913;29;20047;-90
2021/11/20 03:03:58;;;;;;;12.20;4.30;;;;;;;;;;4909159;29;19919;-92
2021/11/20 03:06:28;;;;;;;13.50;4.72;;;;;;;;;;4926269;29;20127;-91
2021/11/20 03:09:18;;;;;;;10.82;4.43;;;;;;;;;;4918220;29;20044;-91
2021/11/20 03:11:45;;;;;;;13.52;4.13;;;;;;;;;;4877616;29;20516;-92
2021/11/20 03:14:25;;;;;;;11.13;3.90;;;;;;;;;;4875146;29;20041;-91
2021/11/20 03:16:57;;;;;;;10.77;4.40;;;;;;;;;;4860314;29;20056;-91
2021/11/20 03:19:27;;;;;;;13.38;4.00;;;;;;;;;;4860320;29;20510;-91
2021/11/20 03:22:02;;;;;;;9.98;3.95;;;;;;;;;;4875267;29;20582;-90
2021/11/20 03:24:30;;;;;;;12.80;3.90;;;;;;;;;;4889457;29;20614;-91
2021/11/20 03:27:05;;;;;;;9.27;3.70;;;;;;;;;;4868745;29;20079;-91
2021/11/20 03:29:34;;;;;;;9.02;3.58;;;;;;;;;;4889525;29;20131;-91
2021/11/20 03:32:22;;;;;;;10.30;3.90;;;;;;;;;;4875294;29;20573;-90
2021/11/20 03:34:50;;;;;;;12.85;4.18;;;;;;;;;;4846711;29;20510;-91
2021/11/20 03:37:22;;;;;;;12.85;3.95;;;;;;;;;;4831713;29;20364;-90
2021/11/20 03:39:50;;;;;;;13.80;3.95;;;;;;;;;;4844815;29;20164;-91
2021/11/20 03:42:21;;;;;;;12.00;4.10;;;;;;;;;;4839833;29;20053;-91
2021/11/20 03:44:50;;;;;;;10.70;3.80;;;;;;;;;;4816289;29;20041;-91
2021/11/20 03:47:19;;;;;;;8.82;3.40;;;;;;;;;;4867174;29;20032;-91
2021/11/20 03:49:46;;;;;;;10.85;3.90;;;;;;;;;;4885886;29;20119;-91
2021/11/20 03:52:15;;;;;;;9.63;4.00;;;;;;;;;;4870159;29;20078;-92
2021/11/20 03:54:49;;;;;;;9.77;3.85;;;;;;;;;;4884592;29;20028;-92
2021/11/20 03:57:18;;;;;;;10.77;4.18;;;;;;;;;;4887198;29;20161;-92
2021/11/20 03:59:48;;;;;;;11.15;4.47;;;;;;;;;;4866638;29;20158;-92
2021/11/20 04:02:17;;;;;;;12.30;4.20;;;;;;;;;;4859354;29;20041;-90
2021/11/20 04:04:45;;;;;;;15.07;4.70;;;;;;;;;;4857784;29;20037;-91
2021/11/20 04:07:12;;;;;;;11.90;4.35;;;;;;;;;;4841658;29;20045;-91
2021/11/20 04:09:40;;;;;;;12.63;4.20;;;;;;;;;;4854313;29;20064;-91
2021/11/20 04:12:10;;;;;;;12.65;3.67;;;;;;;;;;4850200;29;20041;-90
2021/11/20 04:14:39;;;;;;;10.45;4.10;;;;;;;;;;4837524;29;20061;-91
2021/11/20 04:17:05;;;;;;;11.80;4.47;;;;;;;;;;4828815;29;20070;-92
2021/11/20 04:19:33;;;;;;;12.18;4.20;;;;;;;;;;4834057;29;20049;-90
2021/11/20 04:22:01;;;;;;;13.25;4.53;;;;;;;;;;4837924;29;20042;-92
2021/11/20 04:24:28;;;;;;;12.80;4.43;;;;;;;;;;4848410;29;20100;-91
2021/11/20 04:27:01;;;;;;;9.93;4.30;;;;;;;;;;4864926;29;20044;-91
2021/11/20 04:29:29;;;;;;;11.57;4.22;;;;;;;;;;4871017;29;20037;-91
2021/11/20 04:32:00;;;;;;;10.95;4.20;;;;;;;;;;4845788;29;20079;-91
2021/11/20 04:34:28;;;;;;;10.25;3.78;;;;;;;;;;4854632;29;20111;-91
2021/11/20 04:36:55;;;;;;;10.48;4.22;;;;;;;;;;4867936;29;20052;-91
2021/11/20 04:39:24;;;;;;;11.98;3.95;;;;;;;;;;4856849;29;20044;-91
2021/11/20 04:41:52;;;;;;;10.00;3.65;;;;;;;;;;4872439;29;20044;-91
2021/11/20 04:44:20;;;;;;;9.98;3.55;;;;;;;;;;4868435;29;20451;-91
2021/11/20 04:46:48;;;;;;;10.63;3.53;;;;;;;;;;4845840;29;20082;-90
2021/11/20 04:49:16;;;;;;;12.27;4.00;;;;;;;;;;4851807;29;20719;-91
2021/11/20 04:52:07;;;;;;;11.00;4.30;;;;;;;;;;4852388;29;20044;-90
2021/11/20 04:54:35;;;;;;;11.45;4.00;;;;;;;;;;4832498;29;20047;-91
2021/11/20 04:57:04;;;;;;;9.25;3.95;;;;;;;;;;4851308;29;20652;-91
2021/11/20 04:59:32;;;;;;;10.98;4.10;;;;;;;;;;4849346;29;20649;-91
2021/11/20 05:02:01;;;;;;;11.07;4.00;;;;;;;;;;4852784;29;20037;-88
2021/11/20 05:04:27;;;;;;;11.88;3.70;;;;;;;;;;4877436;29;20036;-89
2021/11/20 05:06:54;;;;;;;11.27;3.72;;;;;;;;;;4903472;29;20040;-89
2021/11/20 05:09:22;;;;;;;11.48;4.53;;;;;;;;;;4906325;29;20123;-90
2021/11/20 05:11:52;;;;;;;10.90;4.20;;;;;;;;;;4891597;29;20048;-90
2021/11/20 05:14:19;;;;;;;11.02;3.75;;;;;;;;;;4906264;29;20246;-90
2021/11/20 05:16:45;;;;;;;13.70;4.75;;;;;;;;;;4903665;29;20065;-89
2021/11/20 05:19:15;;;;;;;12.45;4.35;;;;;;;;;;4904412;29;20239;-89
2021/11/20 05:21:44;;;;;;;12.77;4.22;;;;;;;;;;4905039;29;20063;-88
2021/11/20 05:24:16;;;;;;;11.65;4.15;;;;;;;;;;4907581;29;20032;-89
2021/11/20 05:26:53;;;;;;;11.25;4.43;;;;;;;;;;4864103;29;20527;-88
2021/11/20 05:32:27;;;;;;;10.10;4.15;;;;;;;;;;4884860;29;20047;-90
2021/11/20 05:34:56;;;;;;;10.23;4.63;;;;;;;;;;4870923;29;20044;-90
2021/11/20 05:37:26;;;;;;;11.25;3.97;;;;;;;;;;4882839;29;20041;-89
2021/11/20 05:39:54;;;;;;;10.52;3.60;;;;;;;;;;4868824;29;20044;-89
2021/11/20 05:42:21;;;;;;;12.13;4.13;;;;;;;;;;4885488;29;20090;-90
2021/11/20 05:44:51;;;;;;;13.38;4.45;;;;;;;;;;4890195;29;20044;-90
2021/11/20 05:47:19;;;;;;;12.30;4.30;;;;;;;;;;4880117;29;20040;-89
2021/11/20 05:49:45;;;;;;;12.63;4.60;;;;;;;;;;4873968;29;20041;-90
2021/11/20 05:52:12;;;;;;;;;;;;;;;;;;4867010;29;20036;-89
2021/11/20 05:54:41;;;;;;;11.80;4.55;;;;;;;;;;4876335;29;19915;-89
2021/11/20 05:57:09;;;;;;;12.93;4.30;;;;;;;;;;4848963;29;20034;-89
2021/11/20 05:59:36;;;;;;;12.02;4.60;;;;;;;;;;4831825;29;20041;-89
2021/11/20 06:02:06;;;;;;;14.98;5.13;;;;;;;;;;4834428;29;20041;-89
2021/11/20 06:04:34;;;;;;;9.95;4.50;;;;;;;;;;4901524;28;20042;-90
2021/11/20 06:07:01;;;;;;;11.15;4.10;;;;;;;;;;4872534;29;20040;-91
2021/11/20 06:09:30;;;;;;;11.60;4.30;;;;;;;;;;4887442;29;20452;-90
2021/11/20 06:12:02;;;;;;;11.50;4.30;;;;;;;;;;4902774;29;20051;-90
2021/11/20 06:14:30;;;;;;;11.02;4.13;;;;;;;;;;4886286;29;20559;-91
2021/11/20 06:16:58;;;;;;;11.93;4.50;;;;;;;;;;4886141;29;20046;-91
2021/11/20 06:19:25;;;;;;;11.35;4.35;;;;;;;;;;4884840;29;20048;-91
2021/11/20 06:21:53;;;;;;;10.68;4.13;;;;;;;;;;4888339;29;20036;-91
2021/11/20 06:24:23;;;;;;;13.88;4.68;;;;;;;;;;4888790;29;20040;-89
2021/11/20 06:26:51;;;;;;;11.98;4.45;;;;;;;;;;4907022;29;20040;-91
2021/11/20 06:29:19;;;;;;;10.18;4.22;;;;;;;;;;4887219;29;20127;-90
2021/11/20 06:31:48;;;;;;;9.65;3.97;;;;;;;;;;4881557;29;20035;-89
2021/11/20 06:34:17;;;;;;;9.88;4.00;;;;;;;;;;4879836;29;20071;-91
2021/11/20 06:36:46;;;;;;;12.88;4.50;;;;;;;;;;4909527;29;20063;-90
2021/11/20 06:39:14;;;;;;;10.93;4.30;;;;;;;;;;4905584;29;20408;-91
2021/11/20 06:41:44;;;;;;;11.80;4.90;;;;;;;;;;4890620;29;20229;-90
2021/11/20 06:44:14;;;;;;;13.85;4.25;;;;;;;;;;4888610;29;20036;-90
2021/11/20 06:46:40;;;;;;;10.52;4.30;;;;;;;;;;4893785;29;20082;-91
2021/11/20 06:49:09;;;;;;;11.35;3.72;;;;;;;;;;4936846;28;20121;-91
2021/11/20 06:51:38;;;;;;;13.70;6.03;;;;;;;;;;4925682;29;20027;-91
2021/11/20 06:54:10;;;;;;;13.32;5.57;;;;;;;;;;4928299;28;20407;-91
2021/11/20 06:56:43;;;;;;;12.75;5.82;;;;;;;;;;4940995;28;20065;-91
2021/11/20 06:59:19;;;;;;;11.90;4.57;;;;;;;;;;4924405;28;20039;-91
2021/11/20 07:01:49;;;;;;;11.57;5.15;;;;;;;;;;4926571;28;20043;-91
2021/11/20 07:04:25;;;;;;;11.93;4.60;;;;;;;;;;4910466;28;20048;-91
2021/11/20 07:07:09;;;;;;;11.63;4.35;;;;;;;;;;4902280;28;20038;-90
2021/11/20 07:09:39;;;;;;;15.25;5.00;;;;;;;;;;4944772;28;20027;-90
2021/11/20 07:12:09;;;;;;;12.68;4.20;;;;;;;;;;4938674;28;20127;-90
2021/11/20 07:14:36;;;;;;;13.30;4.15;;;;;;;;;;4919932;29;20043;-90
2021/11/20 07:17:05;;;;;;;10.98;4.13;;;;;;;;;;4924000;28;22470;-90
2021/11/20 07:19:32;;;;;;;12.98;4.60;;;;;;;;;;4921198;29;20215;-90
2021/11/20 07:22:00;;;;;;;17.05;7.32;;;;;;;;;;4908235;28;20047;-91
2021/11/20 07:24:31;;;;;;;15.15;5.53;;;;;;;;;;4922168;29;20095;-89
2021/11/20 07:26:58;;;;;;;17.52;6.70;;;;;;;;;;4904225;29;20048;-90
2021/11/20 07:29:26;;;;;;;20.42;7.55;;;;;;;;;;4922116;29;20134;-91
2021/11/20 07:31:54;;;;;;;19.08;7.35;;;;;;;;;;4904618;29;20074;-90
2021/11/20 07:34:22;;;;;;;16.23;6.93;;;;;;;;;;4909159;28;20083;-91
2021/11/20 07:36:49;;;;;;;16.58;6.13;;;;;;;;;;4884807;29;20039;-91
2021/11/20 07:39:17;;;;;;;16.27;6.00;;;;;;;;;;4924918;29;20070;-90
2021/11/20 07:41:45;;;;;;;14.15;5.72;;;;;;;;;;4904569;29;20826;-91
2021/11/20 07:44:13;;;;;;;15.57;5.40;;;;;;;;;;4921401;29;20550;-91
2021/11/20 07:46:41;;;;;;;17.58;5.00;;;;;;;;;;4930542;28;20040;-91
2021/11/20 07:49:07;;;;;;;12.48;4.97;;;;;;;;;;4906100;29;20083;-90
2021/11/20 07:51:34;;;;;;;15.07;4.63;;;;;;;;;;4909822;29;20083;-90
2021/11/20 07:54:02;;;;;;;11.98;4.47;;;;;;;;;;4903348;29;20050;-90
2021/11/20 07:56:30;;;;;;;12.90;4.97;;;;;;;;;;4924988;29;20048;-91
2021/11/20 07:58:58;;;;;;;11.10;4.60;;;;;;;;;;4924438;29;20531;-91
2021/11/20 08:01:25;;;;;;;14.52;4.80;;;;;;;;;;4922427;28;20044;-92
2021/11/20 08:03:54;;;;;;;13.93;5.45;;;;;;;;;;4923685;28;20126;-90
2021/11/20 08:06:26;;;;;;;15.38;6.22;;;;;;;;;;4943652;28;20027;-90
2021/11/20 08:08:55;;;;;;;12.88;6.43;;;;;;;;;;4956456;28;20036;-91
2021/11/20 08:11:22;;;;;;;16.33;6.32;;;;;;;;;;4958536;28;20046;-91
2021/11/20 08:13:49;;;;;;;17.77;8.63;;;;;;;;;;4931319;28;20046;-92
2021/11/20 08:16:17;;;;;;;19.17;8.57;;;;;;;;;;4944718;28;20098;-91
2021/11/20 08:18:46;;;;;;;17.70;8.48;;;;;;;;;;4946267;29;20023;-90
2021/11/20 08:21:16;;;;;;;18.95;8.98;;;;;;;;;;4950598;28;20051;-90
2021/11/20 08:23:42;;;;;;;17.60;8.25;;;;;;;;;;4907555;29;20099;-90
2021/11/20 08:26:11;;;;;;;20.85;10.30;;;;;;;;;;4916615;29;20040;-91
2021/11/20 08:28:38;;;;;;;24.80;15.13;;;;;;;;;;4894041;29;20036;-92
2021/11/20 08:31:05;;;;;;;27.10;17.17;;;;;;;;;;4902960;29;20035;-91
2021/11/20 08:33:33;;;;;;;25.15;15.50;;;;;;;;;;4897883;28;20040;-91
2021/11/20 08:36:07;;;;;;;27.38;16.23;;;;;;;;;;4914645;29;20129;-90
2021/11/20 08:38:34;;;;;;;27.15;18.45;;;;;;;;;;4917223;29;20590;-90
2021/11/20 08:41:04;;;;;;;30.85;19.50;;;;;;;;;;4884831;29;20055;-91
2021/11/20 08:43:44;;;;;;;;;;;;;;;;;;;;;
2021/11/20 08:46:23;;;;;;;16.92;8.60;;;;;;;;;;4906394;29;20833;-91
2021/11/20 08:48:51;;;;;;;12.88;4.72;;;;;;;;;;4911185;29;20059;-92
2021/11/20 08:51:40;;;;;;;11.73;4.30;;;;;;;;;;4875475;29;20044;-90
2021/11/20 08:54:07;;;;;;;7.28;2.00;;;;;;;;;;4905103;29;20072;-90
2021/11/20 08:56:36;;;;;;;7.88;1.67;;;;;;;;;;4892769;29;20048;-91
2021/11/20 08:59:05;;;;;;;12.77;2.53;;;;;;;;;;4895830;29;20408;-90
2021/11/20 09:01:58;;;;;;;8.70;2.30;;;;;;;;;;4907204;29;20044;-92
2021/11/20 09:08:05;;;;;;;;;;;;;;;;;;;;;
2021/11/20 09:11:06;;;;;;;9.77;3.60;;;;;;;;;;4790679;29;20042;-92
2021/11/20 09:14:29;;;;;;;;;;;;;;;;;;;;;
2021/11/20 09:17:17;;;;;;;;;;;;;;;;;;;;;
2021/11/20 09:23:19;;;;;;;13.00;3.30;;;;;;;;;;4737574;29;20051;-92
2021/11/20 09:26:07;;;;;;;;;;;;;;;;;;;;;
2021/11/20 09:32:30;;;;;;;10.70;3.47;;;;;;;;;;4671537;30;20395;-92
2021/11/20 09:35:27;;;;;;;16.42;6.03;;;;;;;;;;4615911;30;20051;-92
2021/11/20 09:38:13;;;;;;;17.52;4.68;;;;;;;;;;4611731;30;20036;-91
2021/11/20 09:44:12;;;;;;;11.60;3.60;;;;;;;;;;4589605;30;20051;-91
2021/11/20 09:47:03;;;;;;;;;;;;;;;;;;;;;
2021/11/20 09:49:56;;;;;;;20.55;10.23;;;;;;;;;;4717445;30;20068;-91
2021/11/20 09:52:48;;;;;;;11.43;5.40;;;;;;;;;;4715734;30;20143;-94
2021/11/20 09:55:26;;;;;;;15.85;4.32;;;;;;;;;;4714597;30;20041;-93
2021/11/20 09:58:11;;;;;;;15.07;3.92;;;;;;;;;;4708235;30;20488;-88
2021/11/20 10:01:09;;;;;;;10.57;3.30;;;;;;;;;;4715763;30;20062;-88
2021/11/20 10:03:38;;;;;;;;;;;;;;;;;;4751249;30;20055;-92
2021/11/20 10:06:11;;;;;;;13.90;3.15;;;;;;;;;;4765125;30;19917;-89
2021/11/20 10:08:43;;;;;;;13.05;3.58;;;;;;;;;;4778128;30;20046;-93
2021/11/20 10:11:33;;;;;;;11.70;3.30;;;;;;;;;;4760249;29;20059;-94
2021/11/20 10:14:21;;;;;;;12.63;4.10;;;;;;;;;;4758365;29;20150;-94
2021/11/20 10:16:52;;;;;;;9.60;2.80;;;;;;;;;;4748320;30;20366;-92
2021/11/20 10:19:34;;;;;;;10.85;2.85;;;;;;;;;;4726040;30;20040;-92
2021/11/20 10:22:04;;;;;;;8.93;3.28;;;;;;;;;;4783965;29;20104;-93
2021/11/20 10:24:40;;;;;;;9.00;2.90;;;;;;;;;;4794278;29;20496;-91
2021/11/20 10:27:26;;;;;;;9.95;2.97;;;;;;;;;;4781811;29;20106;-90
2021/11/20 10:30:14;;;;;;;10.82;2.85;;;;;;;;;;4793024;29;20067;-93
2021/11/20 10:35:57;;;;;;;9.73;3.00;;;;;;;;;;4800173;29;19966;-91
2021/11/20 10:38:29;;;;;;;11.32;3.13;;;;;;;;;;4736787;29;20055;-91
2021/11/20 10:41:07;;;;;;;9.43;3.35;;;;;;;;;;4793026;29;20102;-92
2021/11/20 10:43:55;;;;;;;10.55;3.08;;;;;;;;;;4803729;29;20061;-92
2021/11/20 10:46:29;;;;;;;10.52;3.50;;;;;;;;;;4819422;29;20042;-93
2021/11/20 10:49:15;;;;;;;10.23;3.05;;;;;;;;;;4824623;29;20066;-92
2021/11/20 10:52:15;;;;;;;10.27;2.58;;;;;;;;;;4829829;29;20090;-90
2021/11/20 10:55:06;;;;;;;10.48;2.92;;;;;;;;;;4774940;29;20300;-92
2021/11/20 10:58:13;;;;;;;11.70;3.40;;;;;;;;;;4763363;29;20498;-92
2021/11/20 11:00:58;;;;;;;9.88;3.17;;;;;;;;;;4784218;29;20122;-92
2021/11/20 11:03:46;;;;;;;12.35;4.28;;;;;;;;;;4764040;29;20050;-92
2021/11/20 11:06:31;;;;;;;14.75;4.10;;;;;;;;;;4743376;30;20047;-93
2021/11/20 11:09:24;;;;;;;9.57;2.63;;;;;;;;;;4768825;29;20059;-92
2021/11/20 11:12:27;;;;;;;10.32;3.80;;;;;;;;;;4764796;29;20134;-94
2021/11/20 11:18:19;;;;;;;14.40;4.65;;;;;;;;;;4831636;29;20524;-91
2021/11/20 11:21:07;;;;;;;16.52;8.25;;;;;;;;;;4816212;29;20038;-91
2021/11/20 11:24:05;;;;;;;15.07;6.25;;;;;;;;;;4851155;29;20054;-92
2021/11/20 11:26:37;;;;;;;12.90;4.53;;;;;;;;;;4835929;29;20050;-93
2021/11/20 11:29:34;;;;;;;12.05;4.43;;;;;;;;;;4824757;29;20170;-92
2021/11/20 11:32:03;;;;;;;9.15;3.53;;;;;;;;;;4803259;29;20128;-91
2021/11/20 11:34:49;;;;;;;11.93;3.67;;;;;;;;;;4805469;29;20164;-91
2021/11/20 11:37:51;;;;;;;11.15;4.32;;;;;;;;;;4825617;29;20034;-91
2021/11/20 11:40:37;;;;;;;12.80;4.25;;;;;;;;;;4815580;29;20038;-91
2021/11/20 11:43:22;;;;;;;12.77;4.43;;;;;;;;;;4812577;29;20105;-91
2021/11/20 11:46:15;;;;;;;11.50;4.40;;;;;;;;;;4794431;29;20955;-91
2021/11/20 11:48:52;;;;;;;12.63;4.95;;;;;;;;;;4802484;29;20042;-91
2021/11/20 11:51:34;;;;;;;13.23;4.72;;;;;;;;;;4798948;29;20139;-92
2021/11/20 11:54:23;;;;;;;12.50;5.57;;;;;;;;;;4820680;29;20089;-91
2021/11/20 11:57:05;;;;;;;24.80;13.15;;;;;;;;;;4817523;29;20034;-92
2021/11/20 11:59:42;;;;;;;33.67;17.73;;;;;;;;;;4804212;29;20057;-93
2021/11/20 12:02:24;;;;;;;23.15;11.85;;;;;;;;;;4814048;29;20042;-93
2021/11/20 12:04:56;;;;;;;19.98;10.90;;;;;;;;;;4775466;29;20056;-94
2021/11/20 12:07:34;;;;;;;19.42;10.07;;;;;;;;;;4767838;29;20054;-94
2021/11/20 12:10:14;;;;;;;19.10;9.32;;;;;;;;;;4855133;29;20041;-93
2021/11/20 12:13:06;;;;;;;24.55;13.95;;;;;;;;;;4858531;29;20064;-90
2021/11/20 12:15:48;;;;;;;17.83;9.23;;;;;;;;;;4838760;29;20136;-93
2021/11/20 12:18:28;;;;;;;16.42;8.75;;;;;;;;;;4802007;29;20074;-90
2021/11/20 12:21:17;;;;;;;14.52;7.38;;;;;;;;;;4831236;29;20046;-90
2021/11/20 12:24:09;;;;;;;20.05;8.48;;;;;;;;;;4838267;29;20474;-91
2021/11/20 12:26:51;;;;;;;18.15;9.80;;;;;;;;;;4853229;29;20045;-91
2021/11/20 12:29:41;;;;;;;19.83;9.15;;;;;;;;;;4840564;29;20134;-91
2021/11/20 12:32:32;;;;;;;16.65;7.63;;;;;;;;;;4836238;29;20045;-90
2021/11/20 12:35:17;;;;;;;21.05;8.48;;;;;;;;;;4825732;29;20038;-89
2021/11/20 12:38:23;;;;;;;16.55;7.47;;;;;;;;;;4849251;29;20159;-90
2021/11/20 12:41:27;;;;;;;14.30;7.18;;;;;;;;;;4769916;29;20051;-89
2021/11/20 12:44:18;;;;;;;15.38;5.05;;;;;;;;;;4752197;30;20505;-88
2021/11/20 12:46:52;;;;;;;15.35;4.55;;;;;;;;;;4755900;30;20193;-89
2021/11/20 12:49:40;;;;;;;13.20;5.15;;;;;;;;;;4749618;29;20048;-91
2021/11/20 12:52:28;;;;;;;13.20;4.70;;;;;;;;;;4740137;30;20047;-88
2021/11/20 12:55:23;;;;;;;14.57;5.10;;;;;;;;;;4754933;29;20134;-89
2021/11/20 12:57:54;;;;;;;13.40;4.72;;;;;;;;;;4774050;29;20049;-91
2021/11/20 13:00:30;;;;;;;13.25;4.88;;;;;;;;;;4778716;29;20070;-89
2021/11/20 13:03:06;;;;;;;11.87;3.57;;;;;;;;;;4773720;29;20050;-90
2021/11/20 13:05:58;;;;;;;14.15;4.35;;;;;;;;;;4757444;29;20440;-91
2021/11/20 13:08:31;;;;;;;12.73;5.90;;;;;;;;;;4770730;29;20036;-90
2021/11/20 13:11:11;;;;;;;14.73;6.03;;;;;;;;;;4757711;30;20051;-88
2021/11/20 13:14:03;;;;;;;19.92;8.52;;;;;;;;;;4751957;29;20064;-89
2021/11/20 13:16:48;;;;;;;18.73;8.07;;;;;;;;;;4845710;29;20041;-88
2021/11/20 13:19:21;;;;;;;18.15;8.10;;;;;;;;;;4881231;29;20040;-89
2021/11/20 13:22:12;;;;;;;15.80;6.70;;;;;;;;;;4882189;29;20131;-89
2021/11/20 13:24:45;;;;;;;16.90;6.07;;;;;;;;;;4864864;29;20039;-89
2021/11/20 13:27:12;;;;;;;14.32;5.47;;;;;;;;;;4860601;29;20326;-91
2021/11/20 13:29:43;;;;;;;11.13;4.57;;;;;;;;;;4900502;29;20056;-90
2021/11/20 13:32:15;;;;;;;15.73;6.07;;;;;;;;;;4878897;29;20041;-91
2021/11/20 13:35:07;;;;;;;13.27;4.30;;;;;;;;;;4871255;29;20468;-91
2021/11/20 13:37:35;;;;;;;14.15;6.22;;;;;;;;;;4868579;29;20107;-91
2021/11/20 13:40:07;;;;;;;14.15;6.38;;;;;;;;;;4870236;29;20049;-93
2021/11/20 13:42:46;;;;;;;14.15;4.93;;;;;;;;;;4900962;29;20036;-91
2021/11/20 13:45:15;;;;;;;21.65;11.77;;;;;;;;;;4890212;29;20040;-91
2021/11/20 13:47:50;;;;;;;34.33;23.02;;;;;;;;;;4862551;29;20033;-90
2021/11/20 13:50:36;;;;;;;17.05;8.10;;;;;;;;;;4889002;29;20040;-91
2021/11/20 13:53:15;;;;;;;13.40;6.55;;;;;;;;;;4904853;29;20032;-91
2021/11/20 13:55:46;;;;;;;15.43;6.63;;;;;;;;;;4886979;29;20107;-91
2021/11/20 13:58:34;;;;;;;17.70;7.47;;;;;;;;;;4890471;29;20449;-93
2021/11/20 14:04:19;;;;;;;18.20;7.95;;;;;;;;;;4882481;29;20060;-87
2021/11/20 14:07:07;;;;;;;16.75;7.85;;;;;;;;;;4870219;29;20072;-87
2021/11/20 14:09:44;;;;;;;14.48;6.93;;;;;;;;;;4872134;29;20132;-86
2021/11/20 14:12:17;;;;;;;20.20;9.45;;;;;;;;;;4867832;29;20037;-88
2021/11/20 14:14:48;;;;;;;14.43;6.40;;;;;;;;;;4847115;29;20072;-87
2021/11/20 14:17:36;;;;;;;13.88;5.70;;;;;;;;;;4842435;29;20097;-86
2021/11/20 14:20:09;;;;;;;12.32;5.53;;;;;;;;;;4843295;29;20048;-87
2021/11/20 14:22:40;;;;;;;17.27;7.70;;;;;;;;;;4866494;29;20055;-86
2021/11/20 14:25:27;;;;;;;16.05;8.32;;;;;;;;;;4880739;29;20047;-87
2021/11/20 14:28:01;;;;;;;17.73;10.45;;;;;;;;;;4913161;28;20029;-88
2021/11/20 14:30:28;;;;;;;18.40;9.80;;;;;;;;;;4888692;29;20111;-88
2021/11/20 14:33:07;;;;;;;12.68;7.07;;;;;;;;;;4903057;29;20232;-86
2021/11/20 14:35:34;;;;;;;15.70;8.23;;;;;;;;;;4896616;29;20039;-89
2021/11/20 14:38:03;;;;;;;19.38;9.27;;;;;;;;;;4902253;29;20111;-90
2021/11/20 14:40:31;;;;;;;19.08;8.43;;;;;;;;;;4919960;28;20154;-91
2021/11/20 14:42:58;;;;;;;24.50;12.13;;;;;;;;;;4924432;29;20042;-91
2021/11/20 14:45:28;;;;;;;20.70;8.45;;;;;;;;;;4912112;29;20027;-91
2021/11/20 14:48:02;;;;;;;14.75;7.30;;;;;;;;;;4908319;29;20130;-90
2021/11/20 14:50:38;;;;;;;24.27;16.17;;;;;;;;;;4925044;28;20028;-90
2021/11/20 14:53:14;;;;;;;12.95;5.78;;;;;;;;;;4922456;29;20038;-91
2021/11/20 14:56:12;;;;;;;19.67;11.60;;;;;;;;;;4916968;29;20039;-91
2021/11/20 14:58:40;;;;;;;11.80;4.70;;;;;;;;;;4852805;29;20060;-89
2021/11/20 15:01:13;;;;;;;15.00;6.70;;;;;;;;;;4834885;29;20214;-90
2021/11/20 15:03:46;;;;;;;23.77;10.40;;;;;;;;;;4839986;29;20049;-89
2021/11/20 15:06:14;;;;;;;24.95;9.95;;;;;;;;;;4849981;29;20049;-90
2021/11/20 15:08:42;;;;;;;27.90;11.32;;;;;;;;;;4849406;29;20041;-91
2021/11/20 15:11:10;;;;;;;22.65;11.43;;;;;;;;;;4853496;29;20029;-90
2021/11/20 15:13:42;;;;;;;32.85;13.98;;;;;;;;;;4847854;29;20081;-91
2021/11/20 15:16:10;;;;;;;21.10;9.38;;;;;;;;;;4854366;29;20045;-90
2021/11/20 15:18:44;;;;;;;19.98;9.48;;;;;;;;;;4856265;29;20469;-90
2021/11/20 15:21:12;;;;;;;20.38;8.98;;;;;;;;;;4834104;29;20108;-91
2021/11/20 15:23:40;;;;;;;25.60;11.43;;;;;;;;;;4871868;29;20048;-91
2021/11/20 15:26:10;;;;;;;20.63;10.80;;;;;;;;;;4870932;29;20057;-91
2021/11/20 15:28:39;;;;;;;22.88;9.68;;;;;;;;;;4863259;29;20044;-90
2021/11/20 15:31:07;;;;;;;22.17;12.95;;;;;;;;;;4864672;29;20092;-91
2021/11/20 15:33:39;;;;;;;24.92;15.32;;;;;;;;;;4866927;29;20033;-91
2021/11/20 15:36:08;;;;;;;23.20;11.77;;;;;;;;;;4916580;29;20067;-90
2021/11/20 15:38:35;;;;;;;25.65;14.90;;;;;;;;;;4911610;29;20046;-92
2021/11/20 15:41:01;;;;;;;23.75;11.32;;;;;;;;;;4907514;29;20040;-92
2021/11/20 15:43:29;;;;;;;;;;;;;;;;;;4904385;29;20588;-90
2021/11/20 15:45:57;;;;;;;22.52;13.10;;;;;;;;;;4918510;29;19915;-91
2021/11/20 15:48:45;;;;;;;22.40;13.30;;;;;;;;;;4906867;29;20067;-89
2021/11/20 15:51:12;;;;;;;22.45;13.40;;;;;;;;;;4885835;29;20071;-90